Time;durP1;ratioP1;P1;durP2;ratioP2;P2;SDS_P1;SDS_P2;PMS_P1;PMS_P2;Temp;Humidity;BMP_temperature;BMP_pressure;BME280_temperature;BME280_humidity;BME280_pressure;Samples;Min_cycle;Max_cycle;Signal;HPM_P1;HPM_P2
2021/07/06 00:01:57;;;;;;;2.85;2.10;;;;;;;;;;5042503;28;20115;-80
2021/07/06 00:04:23;;;;;;;3.70;1.92;;;;;;;;;;5045531;28;20060;-81
2021/07/06 00:06:48;;;;;;;2.00;1.80;;;;;;;;;;5045277;28;20430;-80
2021/07/06 00:09:13;;;;;;;5.20;2.08;;;;;;;;;;5043118;28;20039;-80
2021/07/06 00:11:39;;;;;;;2.65;1.92;;;;;;;;;;5051146;28;20043;-81
2021/07/06 00:14:05;;;;;;;1.92;1.73;;;;;;;;;;5045344;28;20052;-81
2021/07/06 00:16:31;;;;;;;4.15;2.00;;;;;;;;;;5046707;28;20120;-81
2021/07/06 00:18:56;;;;;;;2.40;2.15;;;;;;;;;;5044380;28;20382;-81
2021/07/06 00:21:22;;;;;;;2.03;1.83;;;;;;;;;;5038797;28;20094;-81
2021/07/06 00:23:48;;;;;;;2.35;2.08;;;;;;;;;;5039435;28;20511;-80
2021/07/06 00:26:13;;;;;;;2.28;2.08;;;;;;;;;;5040956;28;20056;-80
2021/07/06 00:28:39;;;;;;;2.58;2.10;;;;;;;;;;5042922;28;20090;-79
2021/07/06 00:31:04;;;;;;;4.10;2.15;;;;;;;;;;5043927;28;20107;-81
2021/07/06 00:33:30;;;;;;;4.22;2.13;;;;;;;;;;5040654;28;20021;-81
2021/07/06 00:35:59;;;;;;;2.17;1.98;;;;;;;;;;5041495;28;20112;-81
2021/07/06 00:38:29;;;;;;;3.17;2.00;;;;;;;;;;5038479;28;20480;-81
2021/07/06 00:40:57;;;;;;;2.25;1.95;;;;;;;;;;5043609;28;20477;-81
2021/07/06 00:43:23;;;;;;;2.63;1.80;;;;;;;;;;5043104;28;20518;-81
2021/07/06 00:45:49;;;;;;;1.90;1.80;;;;;;;;;;5045375;28;20017;-81
2021/07/06 00:48:16;;;;;;;2.67;2.05;;;;;;;;;;5041253;28;20048;-81
2021/07/06 00:50:41;;;;;;;3.38;2.22;;;;;;;;;;5047283;28;20095;-83
2021/07/06 00:53:07;;;;;;;7.00;2.15;;;;;;;;;;5047481;28;20037;-81
2021/07/06 00:55:32;;;;;;;2.53;2.22;;;;;;;;;;5047640;28;20025;-81
2021/07/06 00:57:58;;;;;;;4.85;2.95;;;;;;;;;;5041971;28;20075;-81
2021/07/06 01:00:25;;;;;;;2.75;2.22;;;;;;;;;;5047531;28;20075;-81
2021/07/06 01:02:51;;;;;;;2.85;2.10;;;;;;;;;;5041342;28;20035;-81
2021/07/06 01:05:22;;;;;;;4.05;2.30;;;;;;;;;;5045738;28;20124;-81
2021/07/06 01:07:48;;;;;;;3.47;2.20;;;;;;;;;;5042321;28;20532;-81
2021/07/06 01:10:15;;;;;;;3.95;2.25;;;;;;;;;;5037541;28;20056;-81
2021/07/06 01:12:42;;;;;;;4.13;2.13;;;;;;;;;;5039343;28;20037;-81
2021/07/06 01:15:11;;;;;;;2.33;2.03;;;;;;;;;;5041127;28;20036;-81
2021/07/06 01:17:39;;;;;;;2.40;2.20;;;;;;;;;;5046265;28;20036;-81
2021/07/06 01:20:17;;;;;;;2.88;2.45;;;;;;;;;;5037010;28;20068;-81
2021/07/06 01:22:44;;;;;;;2.75;1.83;;;;;;;;;;5041351;28;20033;-81
2021/07/06 01:25:11;;;;;;;2.78;2.08;;;;;;;;;;5045861;28;20032;-81
2021/07/06 01:27:39;;;;;;;2.78;2.13;;;;;;;;;;5042142;28;20405;-80
2021/07/06 01:30:06;;;;;;;4.40;2.30;;;;;;;;;;5040129;28;20494;-80
2021/07/06 01:32:32;;;;;;;2.72;2.10;;;;;;;;;;5048152;28;20595;-80
2021/07/06 01:34:57;;;;;;;2.70;1.77;;;;;;;;;;5041691;28;20036;-80
2021/07/06 01:37:23;;;;;;;2.58;2.38;;;;;;;;;;5040242;28;20110;-80
2021/07/06 01:39:49;;;;;;;2.30;1.80;;;;;;;;;;5058562;28;20036;-81
2021/07/06 01:42:19;;;;;;;2.70;1.77;;;;;;;;;;5045276;28;20032;-81
2021/07/06 01:44:45;;;;;;;3.88;1.77;;;;;;;;;;5042443;28;20090;-81
2021/07/06 01:47:11;;;;;;;4.03;1.88;;;;;;;;;;5040604;28;20401;-81
2021/07/06 01:49:36;;;;;;;3.25;1.75;;;;;;;;;;5045495;28;20029;-80
2021/07/06 01:52:02;;;;;;;2.80;1.60;;;;;;;;;;5041678;28;20052;-80
2021/07/06 01:54:27;;;;;;;5.78;2.03;;;;;;;;;;5039112;28;20615;-80
2021/07/06 01:56:53;;;;;;;5.43;2.00;;;;;;;;;;5045497;28;20029;-81
2021/07/06 01:59:18;;;;;;;4.85;2.33;;;;;;;;;;5042067;28;20090;-81
2021/07/06 02:01:45;;;;;;;2.25;2.05;;;;;;;;;;5041350;28;20056;-81
2021/07/06 02:04:13;;;;;;;2.60;1.95;;;;;;;;;;5044927;28;20080;-80
2021/07/06 02:06:38;;;;;;;4.63;1.73;;;;;;;;;;5043604;28;20393;-80
2021/07/06 02:09:04;;;;;;;2.00;1.90;;;;;;;;;;5037011;28;20025;-80
2021/07/06 02:11:29;;;;;;;4.47;1.80;;;;;;;;;;5040431;28;20032;-80
2021/07/06 02:13:55;;;;;;;2.00;1.80;;;;;;;;;;5041974;28;20493;-80
2021/07/06 02:16:21;;;;;;;2.78;1.88;;;;;;;;;;5042972;28;20387;-81
2021/07/06 02:18:47;;;;;;;3.80;2.00;;;;;;;;;;5044327;28;20729;-80
2021/07/06 02:21:13;;;;;;;3.20;2.00;;;;;;;;;;5045168;28;20033;-81
2021/07/06 02:23:38;;;;;;;4.50;1.83;;;;;;;;;;5044923;28;20063;-81
2021/07/06 02:26:07;;;;;;;2.60;1.90;;;;;;;;;;5045837;28;20120;-80
2021/07/06 02:28:33;;;;;;;2.75;1.90;;;;;;;;;;5044428;28;20025;-80
2021/07/06 02:30:59;;;;;;;2.03;1.65;;;;;;;;;;5043182;28;20031;-80
2021/07/06 02:33:27;;;;;;;3.05;1.80;;;;;;;;;;5045111;28;20029;-81
2021/07/06 02:35:52;;;;;;;1.75;1.65;;;;;;;;;;5040633;28;20028;-81
2021/07/06 02:38:18;;;;;;;2.25;1.60;;;;;;;;;;5040284;28;20016;-81
2021/07/06 02:40:44;;;;;;;3.33;1.80;;;;;;;;;;5044761;28;20021;-80
2021/07/06 02:43:09;;;;;;;6.22;1.65;;;;;;;;;;5045642;28;20036;-81
2021/07/06 02:45:35;;;;;;;2.13;1.63;;;;;;;;;;5035963;28;20040;-80
2021/07/06 02:48:00;;;;;;;2.20;1.73;;;;;;;;;;5042170;28;20095;-81
2021/07/06 02:50:27;;;;;;;3.40;1.75;;;;;;;;;;5045027;28;20503;-80
2021/07/06 02:52:53;;;;;;;3.22;1.92;;;;;;;;;;5062000;28;20111;-80
2021/07/06 02:55:19;;;;;;;2.22;1.88;;;;;;;;;;5041438;28;20447;-80
2021/07/06 02:57:45;;;;;;;2.15;1.85;;;;;;;;;;5042683;28;20413;-80
2021/07/06 03:00:15;;;;;;;2.97;1.58;;;;;;;;;;5039768;28;20025;-80
2021/07/06 03:02:46;;;;;;;3.85;1.80;;;;;;;;;;5042700;28;20025;-79
2021/07/06 03:05:13;;;;;;;1.92;1.55;;;;;;;;;;5042858;28;20029;-80
2021/07/06 03:07:39;;;;;;;1.70;1.58;;;;;;;;;;5033652;28;20033;-81
2021/07/06 03:10:10;;;;;;;1.77;1.67;;;;;;;;;;5034014;28;20112;-80
2021/07/06 03:12:36;;;;;;;2.58;1.60;;;;;;;;;;5039682;28;20029;-81
2021/07/06 03:15:01;;;;;;;2.22;1.60;;;;;;;;;;5036980;28;20392;-80
2021/07/06 03:17:27;;;;;;;2.20;1.70;;;;;;;;;;5041017;28;20021;-80
2021/07/06 03:19:52;;;;;;;1.55;1.45;;;;;;;;;;5044468;28;20047;-80
2021/07/06 03:22:18;;;;;;;1.73;1.40;;;;;;;;;;5038600;28;20032;-82
2021/07/06 03:24:43;;;;;;;4.35;1.70;;;;;;;;;;5039614;28;20042;-81
2021/07/06 03:27:08;;;;;;;1.70;1.60;;;;;;;;;;5040861;28;20033;-81
2021/07/06 03:29:34;;;;;;;2.00;1.70;;;;;;;;;;5044974;28;20039;-81
2021/07/06 03:31:59;;;;;;;2.42;1.60;;;;;;;;;;5035542;28;20117;-81
2021/07/06 03:34:25;;;;;;;3.05;1.70;;;;;;;;;;5039902;28;20025;-81
2021/07/06 03:36:51;;;;;;;2.22;1.80;;;;;;;;;;5043860;28;20385;-81
2021/07/06 03:39:16;;;;;;;2.35;1.70;;;;;;;;;;5041768;28;20497;-81
2021/07/06 03:41:42;;;;;;;1.90;1.75;;;;;;;;;;5061244;28;20515;-81
2021/07/06 03:44:08;;;;;;;2.20;1.80;;;;;;;;;;5044005;28;20029;-81
2021/07/06 03:46:33;;;;;;;2.42;1.48;;;;;;;;;;5035566;28;20714;-81
2021/07/06 03:49:03;;;;;;;1.63;1.52;;;;;;;;;;5044822;28;20512;-81
2021/07/06 03:51:31;;;;;;;2.00;1.77;;;;;;;;;;5041140;28;20033;-81
2021/07/06 03:53:56;;;;;;;2.00;1.67;;;;;;;;;;5044928;28;20416;-81
2021/07/06 03:56:22;;;;;;;1.88;1.75;;;;;;;;;;5038298;28;20025;-81
2021/07/06 03:58:48;;;;;;;1.95;1.35;;;;;;;;;;5045353;28;20047;-81
2021/07/06 04:01:13;;;;;;;2.25;1.38;;;;;;;;;;5047150;28;20021;-81
2021/07/06 04:03:39;;;;;;;2.47;1.60;;;;;;;;;;5047583;28;20024;-80
2021/07/06 04:06:04;;;;;;;2.20;1.30;;;;;;;;;;5048700;28;20059;-80
2021/07/06 04:08:30;;;;;;;2.95;1.45;;;;;;;;;;5044106;28;20048;-80
2021/07/06 04:10:55;;;;;;;3.70;2.05;;;;;;;;;;5048001;28;20063;-80
2021/07/06 04:13:21;;;;;;;2.10;1.65;;;;;;;;;;5044789;28;20380;-80
2021/07/06 04:15:46;;;;;;;2.28;1.40;;;;;;;;;;5035657;28;20128;-81
2021/07/06 04:18:11;;;;;;;2.88;1.08;;;;;;;;;;5044428;28;20048;-80
2021/07/06 04:20:37;;;;;;;2.53;1.60;;;;;;;;;;5042168;28;20069;-81
2021/07/06 04:23:02;;;;;;;1.35;1.25;;;;;;;;;;5047567;28;20025;-80
2021/07/06 04:25:30;;;;;;;3.90;1.58;;;;;;;;;;5038372;28;20029;-81
2021/07/06 04:27:56;;;;;;;2.13;1.67;;;;;;;;;;5058939;28;20040;-81
2021/07/06 04:30:21;;;;;;;1.60;1.50;;;;;;;;;;5045846;28;20112;-80
2021/07/06 04:32:46;;;;;;;1.20;1.10;;;;;;;;;;5039555;28;20036;-81
2021/07/06 04:35:13;;;;;;;1.70;1.30;;;;;;;;;;5042709;28;20027;-81
2021/07/06 04:37:38;;;;;;;1.90;1.50;;;;;;;;;;5038966;28;20124;-81
2021/07/06 04:40:05;;;;;;;2.33;1.90;;;;;;;;;;5044815;28;20108;-79
2021/07/06 04:42:30;;;;;;;1.70;1.50;;;;;;;;;;5040001;28;20055;-79
2021/07/06 04:44:56;;;;;;;2.35;1.27;;;;;;;;;;5044992;28;20059;-78
2021/07/06 04:47:21;;;;;;;1.30;1.20;;;;;;;;;;5042738;28;20445;-79
2021/07/06 04:49:47;;;;;;;2.45;1.30;;;;;;;;;;5039314;28;20058;-80
2021/07/06 04:52:12;;;;;;;1.42;1.33;;;;;;;;;;5047590;28;20021;-78
2021/07/06 04:54:38;;;;;;;1.35;1.25;;;;;;;;;;5047372;28;20021;-79
2021/07/06 04:57:03;;;;;;;1.25;1.15;;;;;;;;;;5048280;28;20016;-81
2021/07/06 04:59:29;;;;;;;2.40;1.10;;;;;;;;;;5045243;28;20287;-80
2021/07/06 05:01:54;;;;;;;1.88;0.90;;;;;;;;;;5046953;28;20025;-79
2021/07/06 05:04:20;;;;;;;1.08;1.00;;;;;;;;;;5041079;28;20488;-80
2021/07/06 05:06:46;;;;;;;1.40;1.30;;;;;;;;;;5042644;28;20095;-80
2021/07/06 05:09:11;;;;;;;1.50;1.20;;;;;;;;;;5043850;28;20500;-79
2021/07/06 05:11:37;;;;;;;1.50;1.05;;;;;;;;;;5043307;28;20047;-78
2021/07/06 05:14:02;;;;;;;2.28;1.17;;;;;;;;;;5046107;28;20033;-79
2021/07/06 05:16:30;;;;;;;1.65;1.30;;;;;;;;;;5041576;28;20040;-78
2021/07/06 05:18:55;;;;;;;1.63;1.10;;;;;;;;;;5046848;28;20032;-77
2021/07/06 05:21:21;;;;;;;2.60;1.27;;;;;;;;;;5042305;28;20549;-78
2021/07/06 05:23:46;;;;;;;1.55;1.20;;;;;;;;;;5043341;28;20490;-78
2021/07/06 05:26:13;;;;;;;1.17;1.00;;;;;;;;;;5041487;28;20488;-78
2021/07/06 05:28:39;;;;;;;1.08;0.98;;;;;;;;;;5041099;28;20083;-79
2021/07/06 05:31:05;;;;;;;1.80;1.02;;;;;;;;;;5042308;28;20061;-76
2021/07/06 05:33:30;;;;;;;2.67;1.80;;;;;;;;;;5042661;28;20090;-79
2021/07/06 05:35:56;;;;;;;1.95;1.50;;;;;;;;;;5044484;28;20549;-79
2021/07/06 05:38:22;;;;;;;1.67;1.20;;;;;;;;;;5040043;28;20056;-78
2021/07/06 05:40:53;;;;;;;2.35;1.00;;;;;;;;;;5043641;28;20033;-78
2021/07/06 05:43:19;;;;;;;1.90;1.00;;;;;;;;;;5044519;28;20025;-78
2021/07/06 05:45:44;;;;;;;1.73;1.15;;;;;;;;;;5040483;28;20037;-77
2021/07/06 05:48:10;;;;;;;2.05;1.00;;;;;;;;;;5042630;28;20550;-77
2021/07/06 05:50:35;;;;;;;1.00;0.90;;;;;;;;;;5045839;28;20029;-77
2021/07/06 05:53:01;;;;;;;1.25;1.08;;;;;;;;;;5043324;28;20074;-77
2021/07/06 05:55:26;;;;;;;1.20;1.10;;;;;;;;;;5040183;28;20063;-76
2021/07/06 05:57:52;;;;;;;1.10;1.00;;;;;;;;;;5042752;28;20063;-77
2021/07/06 06:00:18;;;;;;;1.48;0.82;;;;;;;;;;5042538;28;20450;-77
2021/07/06 06:02:43;;;;;;;1.30;1.20;;;;;;;;;;5039602;28;20025;-78
2021/07/06 06:05:09;;;;;;;1.30;1.20;;;;;;;;;;5045579;28;20068;-78
2021/07/06 06:07:42;;;;;;;1.20;1.10;;;;;;;;;;5042263;28;20041;-79
2021/07/06 06:10:11;;;;;;;2.13;1.00;;;;;;;;;;5045169;28;20060;-79
2021/07/06 06:12:37;;;;;;;1.20;1.10;;;;;;;;;;5041835;28;20036;-78
2021/07/06 06:15:05;;;;;;;1.25;0.93;;;;;;;;;;5043189;28;20021;-79
2021/07/06 06:17:30;;;;;;;1.38;1.00;;;;;;;;;;5035395;28;20035;-79
2021/07/06 06:19:56;;;;;;;2.90;1.10;;;;;;;;;;5042715;28;20115;-79
2021/07/06 06:22:22;;;;;;;1.25;1.10;;;;;;;;;;5040224;28;20078;-79
2021/07/06 06:24:47;;;;;;;1.75;0.90;;;;;;;;;;5036979;28;20504;-78
2021/07/06 06:27:12;;;;;;;1.02;0.95;;;;;;;;;;5043683;28;20495;-79
2021/07/06 06:29:38;;;;;;;2.60;1.10;;;;;;;;;;5035985;28;20052;-79
2021/07/06 06:32:04;;;;;;;1.30;1.02;;;;;;;;;;5041492;28;20033;-78
2021/07/06 06:34:30;;;;;;;2.45;1.00;;;;;;;;;;5032657;28;20033;-76
2021/07/06 06:36:55;;;;;;;2.10;1.67;;;;;;;;;;5033831;28;20576;-76
2021/07/06 06:39:23;;;;;;;1.42;1.10;;;;;;;;;;5034285;28;20680;-76
2021/07/06 06:41:48;;;;;;;1.90;1.02;;;;;;;;;;5035688;28;20029;-76
2021/07/06 06:44:14;;;;;;;1.33;1.23;;;;;;;;;;5042388;28;20075;-76
2021/07/06 06:46:39;;;;;;;1.58;1.10;;;;;;;;;;5043190;28;20037;-76
2021/07/06 06:49:05;;;;;;;1.20;1.10;;;;;;;;;;5043243;28;20421;-76
2021/07/06 06:51:32;;;;;;;1.35;0.98;;;;;;;;;;5041191;28;20025;-76
2021/07/06 06:53:57;;;;;;;1.20;1.10;;;;;;;;;;5041278;28;20112;-77
2021/07/06 06:56:23;;;;;;;1.30;1.00;;;;;;;;;;5037403;28;20131;-76
2021/07/06 06:58:48;;;;;;;1.35;0.90;;;;;;;;;;5043292;28;20176;-77
2021/07/06 07:01:14;;;;;;;1.00;0.95;;;;;;;;;;5041271;28;20148;-77
2021/07/06 07:03:39;;;;;;;1.17;1.08;;;;;;;;;;5040087;28;20032;-76
2021/07/06 07:06:05;;;;;;;1.38;0.80;;;;;;;;;;5045100;28;20442;-77
2021/07/06 07:08:30;;;;;;;1.10;1.00;;;;;;;;;;5039165;28;20112;-76
2021/07/06 07:10:56;;;;;;;1.45;0.82;;;;;;;;;;5043344;28;20070;-76
2021/07/06 07:13:21;;;;;;;1.40;0.90;;;;;;;;;;5034472;28;20079;-76
2021/07/06 07:15:46;;;;;;;2.50;1.20;;;;;;;;;;5040958;28;20025;-75
2021/07/06 07:18:12;;;;;;;1.20;1.10;;;;;;;;;;5043542;28;20037;-76
2021/07/06 07:20:37;;;;;;;1.15;1.05;;;;;;;;;;5041556;28;20041;-76
2021/07/06 07:23:03;;;;;;;2.40;1.30;;;;;;;;;;5039364;28;20024;-77
2021/07/06 07:25:32;;;;;;;1.40;0.93;;;;;;;;;;5034828;28;20039;-76
2021/07/06 07:27:58;;;;;;;;;;;;;;;;;;5043260;28;20493;-76
2021/07/06 07:30:24;;;;;;;1.38;1.20;;;;;;;;;;5041078;28;19947;-78
2021/07/06 07:32:49;;;;;;;3.13;1.17;;;;;;;;;;5040336;28;20032;-78
2021/07/06 07:35:16;;;;;;;3.25;1.10;;;;;;;;;;5045822;28;20032;-78
2021/07/06 07:37:43;;;;;;;1.38;1.23;;;;;;;;;;5046657;28;20872;-79
2021/07/06 07:40:10;;;;;;;1.35;1.20;;;;;;;;;;5041831;28;20112;-78
2021/07/06 07:42:36;;;;;;;1.85;1.20;;;;;;;;;;5039962;28;20116;-76
2021/07/06 07:45:01;;;;;;;1.10;1.00;;;;;;;;;;5044594;28;20112;-77
2021/07/06 07:47:27;;;;;;;2.92;1.20;;;;;;;;;;5045570;28;20017;-77
2021/07/06 07:49:52;;;;;;;1.38;1.17;;;;;;;;;;5042545;28;20029;-78
2021/07/06 07:52:18;;;;;;;1.55;1.17;;;;;;;;;;5042392;28;20033;-78
2021/07/06 07:54:43;;;;;;;2.72;1.30;;;;;;;;;;5037211;28;20040;-80
2021/07/06 07:57:10;;;;;;;2.58;1.30;;;;;;;;;;5048062;28;20511;-78
2021/07/06 07:59:38;;;;;;;1.25;1.17;;;;;;;;;;5042094;28;20028;-78
2021/07/06 08:02:04;;;;;;;1.55;1.15;;;;;;;;;;5042286;28;20026;-78
2021/07/06 08:04:30;;;;;;;1.90;1.17;;;;;;;;;;5044625;28;20044;-76
2021/07/06 08:06:55;;;;;;;1.60;1.00;;;;;;;;;;5039544;28;20489;-77
2021/07/06 08:09:21;;;;;;;1.40;1.17;;;;;;;;;;5042350;28;20028;-76
2021/07/06 08:11:46;;;;;;;1.30;1.20;;;;;;;;;;5048153;28;20033;-76
2021/07/06 08:14:12;;;;;;;1.00;1.00;;;;;;;;;;5061727;28;20108;-76
2021/07/06 08:16:37;;;;;;;1.48;1.17;;;;;;;;;;5056351;28;20028;-77
2021/07/06 08:19:03;;;;;;;1.30;1.15;;;;;;;;;;5045020;28;20064;-75
2021/07/06 08:21:28;;;;;;;2.65;1.40;;;;;;;;;;5051079;28;20436;-76
2021/07/06 08:23:57;;;;;;;1.25;1.15;;;;;;;;;;5044632;28;20370;-76
2021/07/06 08:26:23;;;;;;;1.35;1.20;;;;;;;;;;5047369;28;20025;-78
2021/07/06 08:28:48;;;;;;;1.30;1.20;;;;;;;;;;5044529;28;20363;-78
2021/07/06 08:31:14;;;;;;;1.30;1.20;;;;;;;;;;5044534;28;20028;-78
2021/07/06 08:33:39;;;;;;;1.25;1.13;;;;;;;;;;5045703;28;20044;-79
2021/07/06 08:36:05;;;;;;;1.27;1.17;;;;;;;;;;5041644;28;20032;-76
2021/07/06 08:38:33;;;;;;;3.03;1.30;;;;;;;;;;5046674;28;20087;-76
2021/07/06 08:40:58;;;;;;;2.47;1.17;;;;;;;;;;5040829;28;20021;-77
2021/07/06 08:43:24;;;;;;;3.92;1.30;;;;;;;;;;5045150;28;20025;-76
2021/07/06 08:45:49;;;;;;;1.65;1.10;;;;;;;;;;5044784;28;20108;-76
2021/07/06 08:48:15;;;;;;;1.23;1.10;;;;;;;;;;5034508;28;20056;-76
2021/07/06 08:50:44;;;;;;;1.35;1.25;;;;;;;;;;5048287;28;21166;-76
2021/07/06 08:53:09;;;;;;;1.08;1.05;;;;;;;;;;5046893;28;20114;-76
2021/07/06 08:55:35;;;;;;;2.05;0.95;;;;;;;;;;5047326;28;20488;-77
2021/07/06 08:58:00;;;;;;;2.10;1.00;;;;;;;;;;5046033;28;20067;-77
2021/07/06 09:00:29;;;;;;;1.85;0.85;;;;;;;;;;5047672;28;20508;-77
2021/07/06 09:03:04;;;;;;;1.95;1.85;;;;;;;;;;5048142;28;20021;-76
2021/07/06 09:05:31;;;;;;;1.50;1.30;;;;;;;;;;5040614;28;20035;-78
2021/07/06 09:07:57;;;;;;;6.47;1.20;;;;;;;;;;5046575;28;20406;-78
2021/07/06 09:10:25;;;;;;;3.00;1.30;;;;;;;;;;5041147;28;20045;-77
2021/07/06 09:12:51;;;;;;;1.50;1.40;;;;;;;;;;5044473;28;20481;-77
2021/07/06 09:15:32;;;;;;;2.17;1.27;;;;;;;;;;5046200;28;20025;-76
2021/07/06 09:18:08;;;;;;;1.70;1.60;;;;;;;;;;5041984;28;20089;-78
2021/07/06 09:20:35;;;;;;;3.55;1.48;;;;;;;;;;5041031;28;20111;-79
2021/07/06 09:23:18;;;;;;;2.03;1.42;;;;;;;;;;5045925;28;20025;-79
2021/07/06 09:25:44;;;;;;;1.52;1.42;;;;;;;;;;5043878;28;20029;-76
2021/07/06 09:28:23;;;;;;;4.22;1.30;;;;;;;;;;5047178;28;20033;-77
2021/07/06 09:30:49;;;;;;;2.72;1.70;;;;;;;;;;5037896;28;20034;-77
2021/07/06 09:33:28;;;;;;;3.17;1.80;;;;;;;;;;5036489;28;20058;-77
2021/07/06 09:35:54;;;;;;;5.68;1.70;;;;;;;;;;5044978;28;20028;-77
2021/07/06 09:38:19;;;;;;;2.60;1.70;;;;;;;;;;5044741;28;20041;-77
2021/07/06 09:40:45;;;;;;;2.75;1.75;;;;;;;;;;5044678;28;20033;-77
2021/07/06 09:43:25;;;;;;;2.45;1.70;;;;;;;;;;5045859;28;20044;-77
2021/07/06 09:45:56;;;;;;;1.90;1.80;;;;;;;;;;5044439;28;20033;-78
2021/07/06 09:48:22;;;;;;;3.92;2.00;;;;;;;;;;5047938;28;20082;-77
2021/07/06 09:50:48;;;;;;;3.15;1.80;;;;;;;;;;5045422;28;20053;-77
2021/07/06 09:53:25;;;;;;;5.97;2.47;;;;;;;;;;5045412;28;20020;-77
2021/07/06 09:55:50;;;;;;;3.40;2.30;;;;;;;;;;5040183;28;20021;-77
2021/07/06 09:58:15;;;;;;;3.17;2.20;;;;;;;;;;5043303;28;20037;-77
2021/07/06 10:00:41;;;;;;;4.57;2.20;;;;;;;;;;5046696;28;20481;-77
2021/07/06 10:03:07;;;;;;;9.63;2.72;;;;;;;;;;5048324;28;20499;-78
2021/07/06 10:05:34;;;;;;;3.72;2.28;;;;;;;;;;5047029;28;20108;-77
2021/07/06 10:08:01;;;;;;;3.35;2.17;;;;;;;;;;5044600;28;20054;-77
2021/07/06 10:10:27;;;;;;;3.60;2.25;;;;;;;;;;5041604;28;20029;-77
2021/07/06 10:12:54;;;;;;;2.95;2.25;;;;;;;;;;5045959;28;20025;-77
2021/07/06 10:15:23;;;;;;;2.55;1.90;;;;;;;;;;5043414;28;20643;-77
2021/07/06 10:17:51;;;;;;;3.38;2.00;;;;;;;;;;5041858;28;20322;-82
2021/07/06 10:20:25;;;;;;;2.20;2.00;;;;;;;;;;5043080;28;20488;-76
2021/07/06 10:23:01;;;;;;;3.40;1.92;;;;;;;;;;5038353;28;20385;-77
2021/07/06 10:25:36;;;;;;;3.17;1.65;;;;;;;;;;5039414;28;20349;-76
2021/07/06 10:28:05;;;;;;;5.82;1.90;;;;;;;;;;5043725;28;20051;-77
2021/07/06 10:30:39;;;;;;;4.47;1.88;;;;;;;;;;5045680;28;20059;-76
2021/07/06 10:33:12;;;;;;;3.03;2.17;;;;;;;;;;5034608;28;20029;-76
2021/07/06 10:35:39;;;;;;;5.88;2.05;;;;;;;;;;5036074;28;20084;-76
2021/07/06 10:38:33;;;;;;;4.47;2.00;;;;;;;;;;5041306;28;20108;-76
2021/07/06 10:40:59;;;;;;;3.50;2.20;;;;;;;;;;5041641;28;20082;-76
2021/07/06 10:43:52;;;;;;;4.07;2.00;;;;;;;;;;5044225;28;20052;-75
2021/07/06 10:46:21;;;;;;;2.30;1.73;;;;;;;;;;5039304;28;20148;-77
2021/07/06 10:49:11;;;;;;;4.05;1.80;;;;;;;;;;5039355;28;20508;-76
2021/07/06 10:51:37;;;;;;;5.47;2.00;;;;;;;;;;5043008;28;20043;-76
2021/07/06 10:54:07;;;;;;;3.80;1.42;;;;;;;;;;5043812;28;20396;-75
2021/07/06 10:56:43;;;;;;;8.13;1.70;;;;;;;;;;5045024;28;20028;-74
2021/07/06 10:59:34;;;;;;;2.28;1.50;;;;;;;;;;5036202;28;20111;-77
2021/07/06 11:02:21;;;;;;;5.63;1.70;;;;;;;;;;5041802;28;20090;-76
2021/07/06 11:04:46;;;;;;;5.70;1.35;;;;;;;;;;5044356;28;20465;-77
2021/07/06 11:07:29;;;;;;;2.65;1.50;;;;;;;;;;5040514;28;20056;-76
2021/07/06 11:09:55;;;;;;;3.17;1.65;;;;;;;;;;5047312;28;20068;-76
2021/07/06 11:12:32;;;;;;;2.53;0.98;;;;;;;;;;5052216;28;20052;-76
2021/07/06 11:15:03;;;;;;;6.22;1.55;;;;;;;;;;5049688;28;20031;-76
2021/07/06 11:17:40;;;;;;;5.20;1.48;;;;;;;;;;5047747;28;21703;-76
2021/07/06 11:20:08;;;;;;;2.03;1.10;;;;;;;;;;5047748;28;20028;-77
2021/07/06 11:22:47;;;;;;;1.42;1.27;;;;;;;;;;5044766;28;20065;-75
2021/07/06 11:25:34;;;;;;;1.30;1.20;;;;;;;;;;5046180;28;20033;-75
2021/07/06 11:28:02;;;;;;;2.17;0.95;;;;;;;;;;5047653;28;20048;-75
2021/07/06 11:30:27;;;;;;;2.22;1.20;;;;;;;;;;5046111;28;20032;-76
2021/07/06 11:33:05;;;;;;;1.10;1.00;;;;;;;;;;5051052;28;20086;-77
2021/07/06 11:35:33;;;;;;;1.45;1.00;;;;;;;;;;5045537;28;20119;-76
2021/07/06 11:38:16;;;;;;;1.08;1.02;;;;;;;;;;5047342;28;20048;-77
2021/07/06 11:40:45;;;;;;;5.45;1.23;;;;;;;;;;5043491;28;20508;-77
2021/07/06 11:43:14;;;;;;;1.30;1.20;;;;;;;;;;5047195;28;20115;-77
2021/07/06 11:45:39;;;;;;;2.10;1.13;;;;;;;;;;5047853;28;20552;-77
2021/07/06 11:48:11;;;;;;;1.20;1.02;;;;;;;;;;5048349;28;20107;-77
2021/07/06 11:50:39;;;;;;;1.33;0.90;;;;;;;;;;5050908;28;20052;-77
2021/07/06 11:53:04;;;;;;;1.88;1.00;;;;;;;;;;5048135;28;20025;-77
2021/07/06 11:55:32;;;;;;;0.90;0.90;;;;;;;;;;5043945;28;20120;-77
2021/07/06 11:57:59;;;;;;;2.25;0.95;;;;;;;;;;5045892;28;20023;-79
2021/07/06 12:00:27;;;;;;;1.10;0.90;;;;;;;;;;5047708;28;20804;-78
2021/07/06 12:03:21;;;;;;;3.20;1.10;;;;;;;;;;5047278;28;20035;-78
2021/07/06 12:05:55;;;;;;;1.17;0.98;;;;;;;;;;5048610;28;20025;-77
2021/07/06 12:08:33;;;;;;;0.90;0.82;;;;;;;;;;5048142;28;20502;-77
2021/07/06 12:11:10;;;;;;;3.00;0.70;;;;;;;;;;5042546;28;20060;-77
2021/07/06 12:13:45;;;;;;;3.75;0.90;;;;;;;;;;5040694;28;20040;-77
2021/07/06 12:16:14;;;;;;;1.35;0.88;;;;;;;;;;5040228;28;20032;-74
2021/07/06 12:18:58;;;;;;;1.38;1.05;;;;;;;;;;5044187;28;20044;-77
2021/07/06 12:21:27;;;;;;;2.10;1.00;;;;;;;;;;5039191;28;20457;-76
2021/07/06 12:23:54;;;;;;;1.23;1.02;;;;;;;;;;5041927;28;20021;-77
2021/07/06 12:26:20;;;;;;;0.88;0.88;;;;;;;;;;5044548;28;20828;-77
2021/07/06 12:28:46;;;;;;;4.00;1.20;;;;;;;;;;5046829;28;20575;-74
2021/07/06 12:31:14;;;;;;;0.88;0.88;;;;;;;;;;5040629;28;20114;-75
2021/07/06 12:33:44;;;;;;;5.25;1.10;;;;;;;;;;5049583;28;20037;-78
2021/07/06 12:36:11;;;;;;;5.38;1.10;;;;;;;;;;5038067;28;20167;-78
2021/07/06 12:38:36;;;;;;;1.58;1.00;;;;;;;;;;5044050;28;20035;-78
2021/07/06 12:41:15;;;;;;;1.58;0.93;;;;;;;;;;5048112;28;20266;-80
2021/07/06 12:43:41;;;;;;;;;;;;;;;;;;5046562;28;20052;-77
2021/07/06 12:46:07;;;;;;;2.03;0.88;;;;;;;;;;5034739;28;19917;-75
2021/07/06 12:48:32;;;;;;;0.80;0.80;;;;;;;;;;5033535;28;20017;-78
2021/07/06 12:51:09;;;;;;;2.45;1.00;;;;;;;;;;5053365;28;20039;-78
2021/07/06 12:53:35;;;;;;;1.20;1.10;;;;;;;;;;5038579;28;20411;-78
2021/07/06 12:56:00;;;;;;;1.10;1.00;;;;;;;;;;5041256;28;20099;-76
2021/07/06 12:58:28;;;;;;;0.93;0.90;;;;;;;;;;5035007;28;20128;-85
2021/07/06 13:00:53;;;;;;;2.47;0.85;;;;;;;;;;5038273;28;20519;-85
2021/07/06 13:03:22;;;;;;;1.10;1.00;;;;;;;;;;5038669;28;20033;-75
2021/07/06 13:06:01;;;;;;;1.88;1.23;;;;;;;;;;5042548;28;20029;-74
2021/07/06 13:08:30;;;;;;;1.20;0.90;;;;;;;;;;5040635;28;20633;-78
2021/07/06 13:11:00;;;;;;;3.50;0.80;;;;;;;;;;5042590;28;20087;-75
2021/07/06 13:13:27;;;;;;;1.58;0.90;;;;;;;;;;5043624;28;20068;-74
2021/07/06 13:15:58;;;;;;;4.15;1.10;;;;;;;;;;5041140;28;20493;-74
2021/07/06 13:18:41;;;;;;;3.25;0.90;;;;;;;;;;5050147;28;20125;-74
2021/07/06 13:21:09;;;;;;;1.20;1.10;;;;;;;;;;5042786;28;20342;-74
2021/07/06 13:23:34;;;;;;;1.47;0.90;;;;;;;;;;5040938;28;20040;-74
2021/07/06 13:26:01;;;;;;;1.52;1.02;;;;;;;;;;5045114;28;20106;-76
2021/07/06 13:28:26;;;;;;;2.28;1.05;;;;;;;;;;5041967;28;20025;-75
2021/07/06 13:30:54;;;;;;;2.25;1.25;;;;;;;;;;5041551;28;20477;-74
2021/07/06 13:33:20;;;;;;;1.90;1.20;;;;;;;;;;5047171;28;20321;-74
2021/07/06 13:35:49;;;;;;;2.15;1.20;;;;;;;;;;5046560;28;20035;-74
2021/07/06 13:38:17;;;;;;;2.72;1.17;;;;;;;;;;5045327;28;20471;-75
2021/07/06 13:40:44;;;;;;;1.65;1.20;;;;;;;;;;5046824;28;20083;-74
2021/07/06 13:43:09;;;;;;;2.42;1.42;;;;;;;;;;5041937;28;20024;-74
2021/07/06 13:45:35;;;;;;;3.17;1.65;;;;;;;;;;5043956;28;20063;-74
2021/07/06 13:48:01;;;;;;;3.00;1.65;;;;;;;;;;5045829;28;20286;-75
2021/07/06 13:50:27;;;;;;;1.45;1.35;;;;;;;;;;5045475;28;20021;-74
2021/07/06 13:52:53;;;;;;;2.72;1.70;;;;;;;;;;5046479;28;20020;-74
2021/07/06 13:55:30;;;;;;;1.75;1.58;;;;;;;;;;5041071;28;20021;-76
2021/07/06 13:57:55;;;;;;;3.13;1.70;;;;;;;;;;5041918;28;20076;-75
2021/07/06 14:00:22;;;;;;;2.00;1.75;;;;;;;;;;5043365;28;20492;-74
2021/07/06 14:02:48;;;;;;;3.00;1.60;;;;;;;;;;5041235;28;20056;-74
2021/07/06 14:05:14;;;;;;;2.30;2.08;;;;;;;;;;5042209;28;20029;-74
2021/07/06 14:07:40;;;;;;;2.13;1.92;;;;;;;;;;5043622;28;20389;-75
2021/07/06 14:10:08;;;;;;;2.15;1.90;;;;;;;;;;5047962;28;20056;-75
2021/07/06 14:12:34;;;;;;;2.20;2.00;;;;;;;;;;5043081;28;20404;-75
2021/07/06 14:15:00;;;;;;;2.67;1.60;;;;;;;;;;5043512;28;20081;-75
2021/07/06 14:17:26;;;;;;;2.00;1.80;;;;;;;;;;5044381;28;20025;-76
2021/07/06 14:19:51;;;;;;;3.67;2.20;;;;;;;;;;5039526;28;20377;-75
2021/07/06 14:22:16;;;;;;;2.20;2.00;;;;;;;;;;5045367;28;20040;-75
2021/07/06 14:24:42;;;;;;;5.40;2.88;;;;;;;;;;5042609;28;20028;-74
2021/07/06 14:27:08;;;;;;;2.45;1.73;;;;;;;;;;5045089;28;20017;-75
2021/07/06 14:29:34;;;;;;;3.20;2.15;;;;;;;;;;5047429;28;20029;-75
2021/07/06 14:31:59;;;;;;;3.45;1.98;;;;;;;;;;5044589;28;20475;-77
2021/07/06 14:34:24;;;;;;;2.17;2.00;;;;;;;;;;5043719;28;20112;-75
2021/07/06 14:36:51;;;;;;;2.53;1.80;;;;;;;;;;5043265;28;20074;-75
2021/07/06 14:39:17;;;;;;;2.60;2.08;;;;;;;;;;5045049;28;20032;-74
2021/07/06 14:41:43;;;;;;;2.20;1.92;;;;;;;;;;5044337;28;20287;-74
2021/07/06 14:44:09;;;;;;;2.10;1.90;;;;;;;;;;5042807;28;20392;-74
2021/07/06 14:46:34;;;;;;;2.53;2.33;;;;;;;;;;5044713;28;20029;-75